createdAt,value
2018-02-09T00:00:35.008Z,25.3
2018-02-09T00:03:32.022Z,25.3
2018-02-09T00:06:28.982Z,25.3
2018-02-09T00:09:26.044Z,25.4
2018-02-09T00:15:20.158Z,25.4
2018-02-09T00:21:14.482Z,25.4
2018-02-09T00:27:08.454Z,25.4
2018-02-09T00:33:02.609Z,25.4
2018-02-09T00:38:56.097Z,25.4
2018-02-09T00:41:53.021Z,25.6
2018-02-09T00:47:47.207Z,25.6
2018-02-09T00:53:41.095Z,25.6
2018-02-09T00:56:38.088Z,25.7
2018-02-09T00:59:35.103Z,25.7
2018-02-09T01:02:32.061Z,25.7
2018-02-09T01:05:29.505Z,25.8
2018-02-09T01:08:26.061Z,25.8
2018-02-09T01:11:23.220Z,25.8
2018-02-09T01:14:20.604Z,25.8
2018-02-09T01:17:17.116Z,25.9
2018-02-09T01:20:14.132Z,26
2018-02-09T01:23:11.166Z,26.1
2018-02-09T01:26:08.090Z,26.2
2018-02-09T01:29:05.578Z,26.3
2018-02-09T01:32:02.139Z,26.4
2018-02-09T01:34:59.161Z,26.5
2018-02-09T01:37:56.137Z,26.6
2018-02-09T01:40:53.685Z,26.6
2018-02-09T01:49:44.178Z,26.7
2018-02-09T01:55:38.186Z,26.8
2018-02-09T01:58:35.124Z,26.8
2018-02-09T02:01:32.255Z,26.8
2018-02-09T02:04:29.189Z,26.8
2018-02-09T02:10:23.640Z,27
2018-02-09T02:16:17.630Z,26.9
2018-02-09T02:19:14.258Z,26.9
2018-02-09T02:22:11.579Z,27
2018-02-09T02:25:08.186Z,26.9
2018-02-09T02:28:05.235Z,26.9
2018-02-09T02:36:56.710Z,26.8
2018-02-09T02:39:53.226Z,26.9
2018-02-09T02:42:50.246Z,27
2018-02-09T02:45:47.268Z,27.2
2018-02-09T02:48:44.273Z,27.4
2018-02-09T02:51:41.314Z,27.4
2018-02-09T02:54:38.283Z,27.5
2018-02-09T02:57:35.212Z,27.6
2018-02-09T03:00:32.659Z,27.7
2018-02-09T03:03:29.234Z,27.8
2018-02-09T03:06:26.344Z,27.8
2018-02-09T03:09:23.230Z,27.8
2018-02-09T03:12:20.354Z,27.9
2018-02-09T03:15:17.374Z,27.9
2018-02-09T03:18:14.312Z,28
2018-02-09T03:27:05.292Z,28.3
2018-02-09T03:30:02.291Z,28.3
2018-02-09T03:32:59.333Z,28.4
2018-02-09T03:38:53.445Z,28.4
2018-02-09T03:41:50.298Z,28.5
2018-02-09T03:44:47.500Z,28.7
2018-02-09T03:47:44.286Z,28.7
2018-02-09T03:56:35.355Z,29
2018-02-09T03:59:32.316Z,29
2018-02-09T04:05:26.393Z,29.2
2018-02-09T04:08:23.324Z,29.2
2018-02-09T04:11:20.572Z,29.1
2018-02-09T04:14:17.331Z,29.1
2018-02-09T04:17:14.538Z,29.1
2018-02-09T04:20:11.364Z,29.2
2018-02-09T04:26:05.429Z,29.4
2018-02-09T04:31:59.423Z,29.5
2018-02-09T04:34:56.359Z,29.6
2018-02-09T04:40:50.480Z,29.6
2018-02-09T04:46:44.567Z,29.6
2018-02-09T04:52:38.414Z,29.7
2018-02-09T04:55:35.418Z,29.7
2018-02-09T04:58:32.412Z,29.8
2018-02-09T05:01:29.412Z,29.7
2018-02-09T05:04:26.439Z,29.8
2018-02-09T05:19:11.536Z,30
2018-02-09T05:28:02.502Z,30.2
2018-02-09T05:30:59.447Z,30.2
2018-02-09T05:33:56.474Z,30.2
2018-02-09T05:36:53.462Z,30.2
2018-02-09T05:39:50.486Z,30.2
2018-02-09T05:42:47.997Z,30.2
2018-02-09T05:45:44.495Z,30.2
2018-02-09T05:48:41.571Z,30.3
2018-02-09T05:51:38.504Z,30.5
2018-02-09T05:54:35.528Z,30.5
2018-02-09T05:57:32.474Z,30.4
2018-02-09T06:00:29.512Z,30.4
2018-02-09T06:06:23.533Z,30.6
2018-02-09T06:09:20.509Z,30.8
2018-02-09T06:12:17.998Z,31
2018-02-09T06:21:09.005Z,30.8
2018-02-09T06:24:05.551Z,30.8
2018-02-09T06:29:59.563Z,31
2018-02-09T06:32:56.559Z,31
2018-02-09T06:38:50.688Z,31.1
2018-02-09T06:44:45.139Z,31.3
2018-02-09T06:47:41.539Z,31.5
2018-02-09T06:50:38.585Z,31.5
2018-02-09T06:53:35.590Z,31.6
2018-02-09T06:56:32.622Z,31.6
2018-02-09T06:59:29.602Z,31.6
2018-02-09T07:02:26.608Z,31.5
2018-02-09T07:05:23.613Z,31.5
2018-02-09T07:08:20.604Z,31.5
2018-02-09T07:11:17.681Z,31.5
2018-02-09T07:14:14.693Z,31.5
2018-02-09T07:17:11.605Z,31.5
2018-02-09T07:23:05.911Z,31.6
2018-02-09T07:26:03.328Z,31.4
2018-02-09T07:28:59.623Z,31.2
2018-02-09T07:34:53.720Z,31.1
2018-02-09T07:37:50.624Z,31.2
2018-02-09T07:40:48.146Z,31.2
2018-02-09T07:43:45.083Z,31.2
2018-02-09T07:46:41.709Z,31.3
2018-02-09T07:49:38.654Z,31.3
2018-02-09T07:52:35.859Z,31.4
2018-02-09T08:01:27.140Z,31.4
2018-02-09T08:04:23.661Z,31.4
2018-02-09T08:07:21.291Z,31.4
2018-02-09T08:10:17.714Z,31.3
2018-02-09T08:13:14.877Z,31.3
2018-02-09T08:19:08.791Z,31.3
2018-02-09T08:22:05.722Z,31.3
2018-02-09T08:25:03.207Z,31.2
2018-02-09T08:27:59.714Z,31.2
2018-02-09T08:30:57.173Z,31.2
2018-02-09T08:33:53.719Z,31.3
2018-02-09T08:36:50.748Z,31.2
2018-02-09T08:39:48.178Z,31.2
2018-02-09T08:45:41.850Z,31.2
2018-02-09T08:48:38.753Z,31.2
2018-02-09T08:51:36.225Z,31.1
2018-02-09T08:54:32.722Z,31.1
2018-02-09T08:57:30.276Z,31
2018-02-09T09:00:26.775Z,31
2018-02-09T09:03:23.837Z,31
2018-02-09T09:12:15.211Z,31
2018-02-09T09:15:11.781Z,30.9
2018-02-09T09:21:05.852Z,30.9
2018-02-09T09:26:59.860Z,30.9
2018-02-09T09:35:51.348Z,30.8
2018-02-09T09:38:47.822Z,30.7
2018-02-09T09:44:41.918Z,30.6
2018-02-09T09:47:38.823Z,30.6
2018-02-09T09:50:35.987Z,30.5
2018-02-09T09:53:32.858Z,30.4
2018-02-09T09:56:29.929Z,30.4
2018-02-09T10:08:17.906Z,30.2
2018-02-09T10:14:12.100Z,30.1
2018-02-09T10:20:05.926Z,30
2018-02-09T10:23:02.858Z,29.9
2018-02-09T10:25:59.918Z,29.8
2018-02-09T10:28:56.865Z,29.8
2018-02-09T10:34:51.071Z,29.6
2018-02-09T10:43:42.014Z,29.4
2018-02-09T10:46:38.957Z,29.4
2018-02-09T10:49:36.000Z,29.3
2018-02-09T10:52:32.894Z,29.3
2018-02-09T10:55:29.989Z,29.2
2018-02-09T10:58:26.934Z,29.2
2018-02-09T11:01:23.949Z,29.1
2018-02-09T11:04:20.958Z,29
2018-02-09T11:07:18.002Z,28.9
2018-02-09T11:16:09.050Z,28.8
2018-02-09T11:19:06.623Z,28.7
2018-02-09T11:22:02.995Z,28.7
2018-02-09T11:24:59.996Z,28.6
2018-02-09T11:27:57.019Z,28.6
2018-02-09T11:30:53.996Z,28.6
2018-02-09T11:33:51.059Z,28.6
2018-02-09T11:36:47.994Z,28.5
2018-02-09T11:39:45.209Z,28.5
2018-02-09T11:42:42.050Z,28.5
2018-02-09T11:48:36.031Z,28.4
2018-02-09T11:51:33.001Z,28.4
2018-02-09T11:54:30.057Z,28.4
2018-02-09T12:00:24.073Z,28.3
2018-02-09T12:03:21.357Z,28.4
2018-02-09T12:09:15.102Z,28.3
2018-02-09T12:12:12.654Z,28.2
2018-02-09T12:15:09.200Z,28.2
2018-02-09T12:24:00.091Z,28.1
2018-02-09T12:26:57.074Z,28
2018-02-09T12:29:54.109Z,28
2018-02-09T12:32:51.139Z,28
2018-02-09T12:38:45.122Z,27.9
2018-02-09T12:41:42.146Z,27.9
2018-02-09T12:44:39.168Z,27.8
2018-02-09T12:47:36.126Z,27.8
2018-02-09T12:50:33.135Z,27.8
2018-02-09T12:53:30.137Z,27.8
2018-02-09T12:56:27.142Z,27.8
2018-02-09T12:59:24.089Z,27.8
2018-02-09T13:02:21.152Z,27.8
2018-02-09T13:05:18.146Z,27.8
2018-02-09T13:08:15.206Z,27.7
2018-02-09T13:11:12.303Z,27.7
2018-02-09T13:14:09.616Z,27.7
2018-02-09T13:17:06.130Z,27.7
2018-02-09T13:20:03.203Z,27.7
2018-02-09T13:28:54.219Z,27.6
2018-02-09T13:34:48.222Z,27.6
2018-02-09T13:37:45.193Z,27.6
2018-02-09T13:40:42.256Z,27.6
2018-02-09T13:46:36.231Z,27.6
2018-02-09T13:52:30.262Z,27.5
2018-02-09T13:55:27.195Z,27.5
2018-02-09T14:01:21.223Z,27.5
2018-02-09T14:04:18.332Z,27.5
2018-02-09T14:07:15.439Z,27.5
2018-02-09T14:10:12.242Z,27.4
2018-02-09T14:13:09.763Z,27.4
2018-02-09T14:19:03.279Z,27.4
2018-02-09T14:24:57.289Z,27.4
2018-02-09T14:27:54.684Z,27.4
2018-02-09T14:33:48.298Z,27.3
2018-02-09T14:39:42.419Z,27.3
2018-02-09T14:45:36.330Z,27.3
2018-02-09T14:48:33.652Z,27.3
2018-02-09T14:51:30.352Z,27.2
2018-02-09T14:57:24.366Z,27.2
2018-02-09T15:00:21.295Z,27.2
2018-02-09T15:03:18.354Z,27.2
2018-02-09T15:06:15.327Z,27.2
2018-02-09T15:12:10.175Z,27.2
2018-02-09T15:15:06.327Z,27.2
2018-02-09T15:18:03.433Z,27.1
2018-02-09T15:23:57.373Z,27.1
2018-02-09T15:29:51.401Z,27.1
2018-02-09T15:32:48.362Z,27.1
2018-02-09T15:38:42.753Z,27.1
2018-02-09T15:44:36.470Z,27
2018-02-09T15:47:33.356Z,27
2018-02-09T15:50:30.503Z,27
2018-02-09T15:53:27.366Z,27
2018-02-09T15:56:24.686Z,27
2018-02-09T16:02:18.408Z,27
2018-02-09T16:05:15.405Z,27
2018-02-09T16:14:06.580Z,27
2018-02-09T16:17:03.410Z,27
2018-02-09T16:25:54.438Z,26.9
2018-02-09T16:28:51.434Z,26.9
2018-02-09T16:31:48.461Z,26.9
2018-02-09T16:46:33.573Z,26.8
2018-02-09T16:58:21.534Z,26.8
2018-02-09T17:01:18.451Z,26.8
2018-02-09T17:04:15.570Z,26.8
2018-02-09T17:07:12.518Z,26.8
2018-02-09T17:10:09.490Z,26.8
2018-02-09T17:19:00.533Z,26.8
2018-02-09T17:27:51.957Z,26.7
2018-02-09T17:30:48.455Z,26.7
2018-02-09T17:36:42.645Z,26.7
2018-02-09T17:39:39.557Z,26.6
2018-02-09T17:45:33.947Z,26.6
2018-02-09T17:48:30.528Z,26.6
2018-02-09T17:54:24.554Z,26.5
2018-02-09T17:57:21.513Z,26.5
2018-02-09T18:00:18.593Z,26.5
2018-02-09T18:03:15.604Z,26.5
2018-02-09T18:06:12.599Z,26.6
2018-02-09T18:09:09.556Z,26.6
2018-02-09T18:12:06.816Z,26.6
2018-02-09T18:15:03.602Z,26.5
2018-02-09T18:20:58.010Z,26.5
2018-02-09T18:23:54.529Z,26.5
2018-02-09T18:35:42.601Z,26.4
2018-02-09T18:44:34.088Z,26.4
2018-02-09T18:47:30.592Z,26.4
2018-02-09T18:50:27.620Z,26.4
2018-02-09T18:53:24.598Z,26.4
2018-02-09T18:56:21.665Z,26.4
2018-02-09T18:59:18.647Z,26.4
2018-02-09T19:05:12.644Z,26.4
2018-02-09T19:08:09.633Z,26.4
2018-02-09T19:11:06.803Z,26.4
2018-02-09T19:14:03.653Z,26.4
2018-02-09T19:17:00.657Z,26.5
2018-02-09T19:19:57.650Z,26.4
2018-02-09T19:22:54.657Z,26.4
2018-02-09T19:25:51.620Z,26.4
2018-02-09T19:31:45.706Z,26.3
2018-02-09T19:34:42.670Z,26.3
2018-02-09T19:40:37.117Z,26.3
2018-02-09T19:43:33.707Z,26.3
2018-02-09T19:52:24.770Z,26.3
2018-02-09T19:55:21.695Z,26.3
2018-02-09T19:58:18.737Z,26.3
2018-02-09T20:04:12.770Z,26.4
2018-02-09T20:07:09.699Z,26.4
2018-02-09T20:16:01.181Z,26.4
2018-02-09T20:18:58.124Z,26.4
2018-02-09T20:21:54.702Z,26.4
2018-02-09T20:24:51.723Z,26.4
2018-02-09T20:27:48.758Z,26.4
2018-02-09T20:30:45.755Z,26.4
2018-02-09T20:33:42.815Z,26.4
2018-02-09T20:36:39.774Z,26.4
2018-02-09T20:39:36.791Z,26.4
2018-02-09T20:42:33.885Z,26.4
2018-02-09T20:57:18.891Z,26.3
2018-02-09T21:03:12.842Z,26.2
2018-02-09T21:15:01.409Z,26.1
2018-02-09T21:17:58.246Z,26
2018-02-09T21:23:51.866Z,25.9
2018-02-09T21:26:48.823Z,25.9
2018-02-09T21:29:45.865Z,25.8
2018-02-09T21:35:39.895Z,25.7
2018-02-09T21:41:33.945Z,25.6
2018-02-09T21:44:31.288Z,25.6
2018-02-09T21:50:24.898Z,25.5
2018-02-09T21:53:21.859Z,25.6
2018-02-09T21:56:18.935Z,25.5
2018-02-09T21:59:15.904Z,25.6
2018-02-09T22:02:12.920Z,25.5
2018-02-09T22:05:09.896Z,25.6
2018-02-09T22:08:07.048Z,25.6
2018-02-09T22:11:04.045Z,25.6
2018-02-09T22:19:54.932Z,25.5
2018-02-09T22:22:51.873Z,25.6
2018-02-09T22:25:48.939Z,25.6
2018-02-09T22:28:45.896Z,25.6
2018-02-09T22:34:39.964Z,25.6
2018-02-09T22:37:36.890Z,25.5
2018-02-09T22:46:28.372Z,25.5
2018-02-09T22:49:25.316Z,25.5
2018-02-09T22:52:21.959Z,25.5
2018-02-09T22:55:18.936Z,25.5
2018-02-09T22:58:15.996Z,25.5
2018-02-09T23:01:12.990Z,25.5
2018-02-09T23:04:10.071Z,25.5
2018-02-09T23:07:07.469Z,25.5
2018-02-09T23:10:04.028Z,25.5
2018-02-09T23:13:01.661Z,25.5
2018-02-09T23:18:55.001Z,25.4
2018-02-09T23:21:51.949Z,25.4
2018-02-09T23:30:43.553Z,25.3
2018-02-09T23:33:39.987Z,25.3
2018-02-09T23:36:37.196Z,25.4
2018-02-09T23:39:34.001Z,25.4
2018-02-09T23:42:31.108Z,25.4
2018-02-09T23:45:28.451Z,25.4
2018-02-09T23:48:25.501Z,25.4
2018-02-09T23:54:19.162Z,25.4
2018-02-09T23:57:16.026Z,25.4
